Porter Corners, New York
Current Conditions -  °F | °C
As of 12:53 PM on Thursday 30 Oct 2014 (Local Time) from KGFL Reporting Station
Broken Clouds Broken Clouds  
Wind Chill: 12°   Ceiling: 4500
Heat Index: 12°   Visibility: 10mi
Dew Point:   Wind: 7mph
Humidity: 49%   Direction: 320°NW
Pressure: 29.95"   Gusts: NA
Location:  43.15°N, 73.89°W
Report Text: KGFL 301653Z AUTO 32006KT 10SM BKN045 BKN055 12/02 A2995 RMK AO2 SLP146 T01220017
Loading
Personal Weather Stations






























Interactive Weather Map
Tropical Storm Tracking
New forecast layout! Learn more

10-Day Weather Forecast

Advertisements
Track Severe Weather on mobile